GSVT2: Red River, Gainesville, TX

                                SHEF ID:       GSVT2     Red River near Gainesville, TX
STATION TYPE:
Regulating: Stage = 25.00, Flow = 54054

PRECIP STAGE RIV-FLOW BAT-LOAD
in ft cfs volt
Ccp-Rev Ccp-Rev Ccp-Rev Ccp-Rev
(America/Chicago)
04/25 00:00 0.00 6.22 1120 12.49
04/25 01:00 0.00 6.23 1125 12.41
04/25 02:00 0.00 6.25 1135 12.41
04/25 03:00 0.00 6.26 1141 12.41
04/25 04:00 0.00 6.27 1146 12.41
04/25 05:00 0.00 6.27 1146 12.41
04/25 06:00 0.00 6.27 1146 12.41
04/25 07:00 0.00 6.28 1151 12.41
04/25 08:00 0.00 6.27 1146 12.41
04/25 09:00 0.00 6.28 1151 12.57
04/25 10:00 0.00 6.26 1141 12.97
04/25 11:00 0.00 6.28 1151 13.29
04/25 12:00 0.00 6.27 1146 13.29
04/25 13:00 0.00 6.26 1141 13.29
04/25 14:00 0.00 6.26 1141 13.29
04/25 15:00 0.00 6.27 1146 13.29
04/25 16:00 0.00 6.23 1125 13.21
04/25 17:00 0.00 6.24 1130 13.21
04/25 18:00 0.00 6.23 1125 13.21
04/25 19:00 0.00 6.21 1114 12.81
04/25 20:00 0.00 6.20 1109 12.57
04/25 21:00 0.00 6.19 1104 12.49
04/25 22:00 0.00 6.20 1109 12.49
04/25 23:00 0.00 6.20 1109 12.41
Data processed at Sun 26Apr2026 04:32 GMT

NOTICE: If you are parsing this page

Please convert to using our Data API. Starting early 2026 we will be migrating to: https://water.usace.army.mil with modern pages rendered in JavaScript. When this migration completes you will no longer be able to scrape this page! CWMSDataAPI (CDA)

Timeseries IDs (TSIDs)

TSIDs used from left to right in the data table
GAIN.Precip-Inc.Total.1Hour.1Hour.Ccp-Rev
GAIN.Stage.Inst.1Hour.0.Ccp-Rev
GAIN.Flow.Inst.1Hour.0.Ccp-Rev
GAIN.Volt-Battery Load.Inst.1Hour.0.Ccp-Rev

                            

All information presented herein is the property of the government of the United States of America and may be revised or deleted at any time without prior notice. Dissemination of this information without the expressed written consent of the Public Affairs Office, Tulsa District U.S. Army Corps of Engineers is strictly prohibited. These data are gathered electronically and, as presented, have NOT undergone any form of quality control. These data are NOT guaranteed to be valid or correct.